sensor_id;sensor_type;location;lat;lon;timestamp;P1;durP1;ratioP1;P2;durP2;ratioP2
20179;SDS011;10249;48.900;9.090;2023-08-20T00:01:39;4.30;;;4.20;;
20179;SDS011;10249;48.900;9.090;2023-08-20T00:04:07;3.93;;;3.83;;
20179;SDS011;10249;48.900;9.090;2023-08-20T00:06:34;4.20;;;4.10;;
20179;SDS011;10249;48.900;9.090;2023-08-20T00:09:02;4.10;;;4.00;;
20179;SDS011;10249;48.900;9.090;2023-08-20T00:11:32;4.00;;;3.90;;
20179;SDS011;10249;48.900;9.090;2023-08-20T00:14:00;3.87;;;3.77;;
20179;SDS011;10249;48.900;9.090;2023-08-20T00:16:28;4.20;;;4.10;;
20179;SDS011;10249;48.900;9.090;2023-08-20T00:18:55;4.20;;;4.10;;
20179;SDS011;10249;48.900;9.090;2023-08-20T00:21:22;4.00;;;3.90;;
20179;SDS011;10249;48.900;9.090;2023-08-20T00:23:51;3.80;;;3.70;;
20179;SDS011;10249;48.900;9.090;2023-08-20T00:26:18;4.10;;;4.00;;
20179;SDS011;10249;48.900;9.090;2023-08-20T00:28:47;4.00;;;3.90;;
20179;SDS011;10249;48.900;9.090;2023-08-20T00:31:14;4.00;;;3.90;;
20179;SDS011;10249;48.900;9.090;2023-08-20T00:33:41;4.17;;;4.07;;
20179;SDS011;10249;48.900;9.090;2023-08-20T00:36:08;4.00;;;3.90;;
20179;SDS011;10249;48.900;9.090;2023-08-20T00:38:35;3.60;;;3.50;;
20179;SDS011;10249;48.900;9.090;2023-08-20T00:41:02;3.70;;;3.60;;
20179;SDS011;10249;48.900;9.090;2023-08-20T00:43:30;3.70;;;3.60;;
20179;SDS011;10249;48.900;9.090;2023-08-20T00:45:59;3.80;;;3.70;;
20179;SDS011;10249;48.900;9.090;2023-08-20T00:48:28;3.80;;;3.70;;
20179;SDS011;10249;48.900;9.090;2023-08-20T00:50:55;3.70;;;3.60;;
20179;SDS011;10249;48.900;9.090;2023-08-20T00:53:23;3.57;;;3.47;;
20179;SDS011;10249;48.900;9.090;2023-08-20T00:55:50;3.60;;;3.50;;
20179;SDS011;10249;48.900;9.090;2023-08-20T00:58:17;3.70;;;3.60;;
20179;SDS011;10249;48.900;9.090;2023-08-20T01:00:45;3.80;;;3.70;;
20179;SDS011;10249;48.900;9.090;2023-08-20T01:03:14;3.63;;;3.53;;
20179;SDS011;10249;48.900;9.090;2023-08-20T01:05:42;3.70;;;3.60;;
20179;SDS011;10249;48.900;9.090;2023-08-20T01:08:15;3.43;;;3.33;;
20179;SDS011;10249;48.900;9.090;2023-08-20T01:10:47;3.40;;;3.30;;
20179;SDS011;10249;48.900;9.090;2023-08-20T01:13:17;3.30;;;3.20;;
20179;SDS011;10249;48.900;9.090;2023-08-20T01:15:44;3.60;;;3.50;;
20179;SDS011;10249;48.900;9.090;2023-08-20T01:18:12;3.60;;;3.50;;
20179;SDS011;10249;48.900;9.090;2023-08-20T01:20:41;3.57;;;3.47;;
20179;SDS011;10249;48.900;9.090;2023-08-20T01:23:14;3.60;;;3.50;;
20179;SDS011;10249;48.900;9.090;2023-08-20T01:25:51;3.67;;;3.57;;
20179;SDS011;10249;48.900;9.090;2023-08-20T01:28:25;3.80;;;3.70;;
20179;SDS011;10249;48.900;9.090;2023-08-20T01:30:53;3.60;;;3.50;;
20179;SDS011;10249;48.900;9.090;2023-08-20T01:33:21;3.70;;;3.60;;
20179;SDS011;10249;48.900;9.090;2023-08-20T01:35:49;4.10;;;4.00;;
20179;SDS011;10249;48.900;9.090;2023-08-20T01:38:16;3.70;;;3.60;;
20179;SDS011;10249;48.900;9.090;2023-08-20T01:40:43;3.73;;;3.63;;
20179;SDS011;10249;48.900;9.090;2023-08-20T01:43:11;3.60;;;3.50;;
20179;SDS011;10249;48.900;9.090;2023-08-20T01:45:39;3.60;;;3.50;;
20179;SDS011;10249;48.900;9.090;2023-08-20T01:48:06;3.70;;;3.60;;
20179;SDS011;10249;48.900;9.090;2023-08-20T01:50:34;3.50;;;3.40;;
20179;SDS011;10249;48.900;9.090;2023-08-20T01:53:01;3.70;;;3.60;;
20179;SDS011;10249;48.900;9.090;2023-08-20T01:55:29;3.57;;;3.47;;
20179;SDS011;10249;48.900;9.090;2023-08-20T01:57:56;3.43;;;3.33;;
20179;SDS011;10249;48.900;9.090;2023-08-20T02:00:24;3.53;;;3.43;;
20179;SDS011;10249;48.900;9.090;2023-08-20T02:02:54;3.33;;;3.23;;
20179;SDS011;10249;48.900;9.090;2023-08-20T02:05:21;3.40;;;3.30;;
20179;SDS011;10249;48.900;9.090;2023-08-20T02:07:48;3.67;;;3.57;;
20179;SDS011;10249;48.900;9.090;2023-08-20T02:10:15;3.70;;;3.60;;
20179;SDS011;10249;48.900;9.090;2023-08-20T02:12:43;3.80;;;3.70;;
20179;SDS011;10249;48.900;9.090;2023-08-20T02:15:10;3.90;;;3.80;;
20179;SDS011;10249;48.900;9.090;2023-08-20T02:17:37;3.80;;;3.70;;
20179;SDS011;10249;48.900;9.090;2023-08-20T02:20:06;3.93;;;3.83;;
20179;SDS011;10249;48.900;9.090;2023-08-20T02:22:35;3.90;;;3.80;;
20179;SDS011;10249;48.900;9.090;2023-08-20T02:25:02;3.80;;;3.70;;
20179;SDS011;10249;48.900;9.090;2023-08-20T02:27:30;3.80;;;3.70;;
20179;SDS011;10249;48.900;9.090;2023-08-20T02:29:57;3.90;;;3.80;;
20179;SDS011;10249;48.900;9.090;2023-08-20T02:32:24;3.80;;;3.70;;
20179;SDS011;10249;48.900;9.090;2023-08-20T02:34:51;3.57;;;3.47;;
20179;SDS011;10249;48.900;9.090;2023-08-20T02:37:20;3.70;;;3.60;;
20179;SDS011;10249;48.900;9.090;2023-08-20T02:39:48;3.53;;;3.43;;
20179;SDS011;10249;48.900;9.090;2023-08-20T02:42:15;3.97;;;3.87;;
20179;SDS011;10249;48.900;9.090;2023-08-20T02:44:42;4.00;;;3.90;;
20179;SDS011;10249;48.900;9.090;2023-08-20T02:47:09;4.30;;;4.20;;
20179;SDS011;10249;48.900;9.090;2023-08-20T02:49:36;4.40;;;4.30;;
20179;SDS011;10249;48.900;9.090;2023-08-20T02:52:04;4.50;;;4.40;;
20179;SDS011;10249;48.900;9.090;2023-08-20T02:54:33;4.73;;;4.63;;
20179;SDS011;10249;48.900;9.090;2023-08-20T02:57:00;4.80;;;4.70;;
20179;SDS011;10249;48.900;9.090;2023-08-20T02:59:27;4.80;;;4.70;;
20179;SDS011;10249;48.900;9.090;2023-08-20T03:01:55;4.90;;;4.80;;
20179;SDS011;10249;48.900;9.090;2023-08-20T03:04:22;5.07;;;4.97;;
20179;SDS011;10249;48.900;9.090;2023-08-20T03:06:49;5.00;;;4.90;;
20179;SDS011;10249;48.900;9.090;2023-08-20T03:09:16;5.40;;;5.20;;
20179;SDS011;10249;48.900;9.090;2023-08-20T03:11:45;5.47;;;5.27;;
20179;SDS011;10249;48.900;9.090;2023-08-20T03:14:12;5.50;;;5.30;;
20179;SDS011;10249;48.900;9.090;2023-08-20T03:16:39;4.90;;;4.80;;
20179;SDS011;10249;48.900;9.090;2023-08-20T03:19:06;4.70;;;4.60;;
20179;SDS011;10249;48.900;9.090;2023-08-20T03:21:33;4.40;;;4.30;;
20179;SDS011;10249;48.900;9.090;2023-08-20T03:24:01;4.40;;;4.30;;
20179;SDS011;10249;48.900;9.090;2023-08-20T03:26:28;4.60;;;4.50;;
20179;SDS011;10249;48.900;9.090;2023-08-20T03:28:57;4.60;;;4.50;;
20179;SDS011;10249;48.900;9.090;2023-08-20T03:31:24;4.30;;;4.20;;
20179;SDS011;10249;48.900;9.090;2023-08-20T03:33:50;4.60;;;4.50;;
20179;SDS011;10249;48.900;9.090;2023-08-20T03:36:17;4.60;;;4.50;;
20179;SDS011;10249;48.900;9.090;2023-08-20T03:38:45;4.60;;;4.50;;
20179;SDS011;10249;48.900;9.090;2023-08-20T03:41:12;4.30;;;4.20;;
20179;SDS011;10249;48.900;9.090;2023-08-20T03:43:39;4.10;;;4.00;;
20179;SDS011;10249;48.900;9.090;2023-08-20T03:46:08;4.00;;;3.90;;
20179;SDS011;10249;48.900;9.090;2023-08-20T03:48:35;4.17;;;4.07;;
20179;SDS011;10249;48.900;9.090;2023-08-20T03:51:02;4.17;;;4.07;;
20179;SDS011;10249;48.900;9.090;2023-08-20T03:53:29;4.20;;;4.10;;
20179;SDS011;10249;48.900;9.090;2023-08-20T03:55:56;4.03;;;3.93;;
20179;SDS011;10249;48.900;9.090;2023-08-20T03:58:23;3.90;;;3.80;;
20179;SDS011;10249;48.900;9.090;2023-08-20T04:00:51;3.90;;;3.80;;
20179;SDS011;10249;48.900;9.090;2023-08-20T04:03:19;3.60;;;3.50;;
20179;SDS011;10249;48.900;9.090;2023-08-20T04:05:46;3.77;;;3.67;;
20179;SDS011;10249;48.900;9.090;2023-08-20T04:08:14;3.83;;;3.73;;
20179;SDS011;10249;48.900;9.090;2023-08-20T04:10:44;4.00;;;3.90;;
20179;SDS011;10249;48.900;9.090;2023-08-20T04:13:11;4.10;;;4.00;;
20179;SDS011;10249;48.900;9.090;2023-08-20T04:15:41;4.20;;;4.10;;
20179;SDS011;10249;48.900;9.090;2023-08-20T04:18:08;4.33;;;4.23;;
20179;SDS011;10249;48.900;9.090;2023-08-20T04:20:36;4.85;;;4.75;;
20179;SDS011;10249;48.900;9.090;2023-08-20T04:23:03;5.70;;;5.50;;
20179;SDS011;10249;48.900;9.090;2023-08-20T04:25:31;5.70;;;5.50;;
20179;SDS011;10249;48.900;9.090;2023-08-20T04:27:58;5.00;;;4.90;;
20179;SDS011;10249;48.900;9.090;2023-08-20T04:30:25;5.00;;;4.90;;
20179;SDS011;10249;48.900;9.090;2023-08-20T04:32:52;4.80;;;4.70;;
20179;SDS011;10249;48.900;9.090;2023-08-20T04:35:19;4.90;;;4.80;;
20179;SDS011;10249;48.900;9.090;2023-08-20T04:37:48;4.47;;;4.37;;
20179;SDS011;10249;48.900;9.090;2023-08-20T04:40:15;4.00;;;3.90;;
20179;SDS011;10249;48.900;9.090;2023-08-20T04:42:42;4.30;;;4.20;;
20179;SDS011;10249;48.900;9.090;2023-08-20T04:45:09;4.20;;;4.10;;
20179;SDS011;10249;48.900;9.090;2023-08-20T04:47:36;4.00;;;3.90;;
20179;SDS011;10249;48.900;9.090;2023-08-20T04:50:04;4.20;;;4.10;;
20179;SDS011;10249;48.900;9.090;2023-08-20T04:52:32;4.10;;;4.00;;
20179;SDS011;10249;48.900;9.090;2023-08-20T04:55:01;3.70;;;3.60;;
20179;SDS011;10249;48.900;9.090;2023-08-20T04:57:28;3.30;;;3.20;;
20179;SDS011;10249;48.900;9.090;2023-08-20T04:59:55;3.30;;;3.20;;
20179;SDS011;10249;48.900;9.090;2023-08-20T05:02:23;3.20;;;3.10;;
20179;SDS011;10249;48.900;9.090;2023-08-20T05:04:50;3.00;;;2.90;;
20179;SDS011;10249;48.900;9.090;2023-08-20T05:07:18;3.10;;;3.00;;
20179;SDS011;10249;48.900;9.090;2023-08-20T05:09:45;3.10;;;3.00;;
20179;SDS011;10249;48.900;9.090;2023-08-20T05:12:14;3.10;;;3.00;;
20179;SDS011;10249;48.900;9.090;2023-08-20T05:14:41;3.13;;;3.03;;
20179;SDS011;10249;48.900;9.090;2023-08-20T05:17:08;3.20;;;3.10;;
20179;SDS011;10249;48.900;9.090;2023-08-20T05:19:35;3.30;;;3.20;;
20179;SDS011;10249;48.900;9.090;2023-08-20T05:22:03;3.47;;;3.38;;
20179;SDS011;10249;48.900;9.090;2023-08-20T05:24:30;3.80;;;3.70;;
20179;SDS011;10249;48.900;9.090;2023-08-20T05:27:04;3.80;;;3.70;;
20179;SDS011;10249;48.900;9.090;2023-08-20T05:29:33;3.90;;;3.80;;
20179;SDS011;10249;48.900;9.090;2023-08-20T05:32:00;4.00;;;3.90;;
20179;SDS011;10249;48.900;9.090;2023-08-20T05:34:27;4.50;;;4.40;;
20179;SDS011;10249;48.900;9.090;2023-08-20T05:36:54;4.70;;;4.60;;
20179;SDS011;10249;48.900;9.090;2023-08-20T05:39:21;4.63;;;4.53;;
20179;SDS011;10249;48.900;9.090;2023-08-20T05:41:50;3.80;;;3.70;;
20179;SDS011;10249;48.900;9.090;2023-08-20T05:44:17;3.60;;;3.50;;
20179;SDS011;10249;48.900;9.090;2023-08-20T05:46:46;3.57;;;3.47;;
20179;SDS011;10249;48.900;9.090;2023-08-20T05:49:13;3.47;;;3.37;;
20179;SDS011;10249;48.900;9.090;2023-08-20T05:51:40;3.07;;;2.97;;
20179;SDS011;10249;48.900;9.090;2023-08-20T05:54:08;3.53;;;3.43;;
20179;SDS011;10249;48.900;9.090;2023-08-20T05:56:35;3.60;;;3.50;;
20179;SDS011;10249;48.900;9.090;2023-08-20T05:59:02;3.57;;;3.47;;
20179;SDS011;10249;48.900;9.090;2023-08-20T06:01:30;4.33;;;4.17;;
20179;SDS011;10249;48.900;9.090;2023-08-20T06:03:58;3.73;;;3.63;;
20179;SDS011;10249;48.900;9.090;2023-08-20T06:06:27;3.80;;;3.70;;
20179;SDS011;10249;48.900;9.090;2023-08-20T06:08:55;3.70;;;3.60;;
20179;SDS011;10249;48.900;9.090;2023-08-20T06:11:22;3.90;;;3.80;;
20179;SDS011;10249;48.900;9.090;2023-08-20T06:13:50;3.80;;;3.70;;
20179;SDS011;10249;48.900;9.090;2023-08-20T06:16:17;4.00;;;3.90;;
20179;SDS011;10249;48.900;9.090;2023-08-20T06:18:44;4.30;;;4.20;;
20179;SDS011;10249;48.900;9.090;2023-08-20T06:21:13;4.50;;;4.40;;
20179;SDS011;10249;48.900;9.090;2023-08-20T06:23:43;4.40;;;4.30;;
20179;SDS011;10249;48.900;9.090;2023-08-20T06:26:10;4.50;;;4.40;;
20179;SDS011;10249;48.900;9.090;2023-08-20T06:28:37;4.60;;;4.50;;
20179;SDS011;10249;48.900;9.090;2023-08-20T06:31:04;5.10;;;5.00;;
20179;SDS011;10249;48.900;9.090;2023-08-20T06:33:31;4.97;;;4.87;;
20179;SDS011;10249;48.900;9.090;2023-08-20T06:35:58;4.83;;;4.73;;
20179;SDS011;10249;48.900;9.090;2023-08-20T06:38:27;5.13;;;5.03;;
20179;SDS011;10249;48.900;9.090;2023-08-20T06:40:55;5.00;;;4.90;;
20179;SDS011;10249;48.900;9.090;2023-08-20T06:43:22;5.27;;;5.13;;
20179;SDS011;10249;48.900;9.090;2023-08-20T06:45:49;5.10;;;5.00;;
20179;SDS011;10249;48.900;9.090;2023-08-20T06:48:17;5.50;;;5.30;;
20179;SDS011;10249;48.900;9.090;2023-08-20T06:50:45;5.27;;;5.17;;
20179;SDS011;10249;48.900;9.090;2023-08-20T06:53:12;5.27;;;5.10;;
20179;SDS011;10249;48.900;9.090;2023-08-20T06:55:42;5.53;;;5.33;;
20179;SDS011;10249;48.900;9.090;2023-08-20T06:58:09;5.40;;;5.20;;
20179;SDS011;10249;48.900;9.090;2023-08-20T07:00:36;5.40;;;5.20;;
20179;SDS011;10249;48.900;9.090;2023-08-20T07:03:04;5.50;;;5.30;;
20179;SDS011;10249;48.900;9.090;2023-08-20T07:05:31;5.60;;;5.40;;
20179;SDS011;10249;48.900;9.090;2023-08-20T07:07:58;5.53;;;5.33;;
20179;SDS011;10249;48.900;9.090;2023-08-20T07:10:25;5.40;;;5.20;;
20179;SDS011;10249;48.900;9.090;2023-08-20T07:12:54;5.80;;;5.60;;
20179;SDS011;10249;48.900;9.090;2023-08-20T07:15:21;5.90;;;5.70;;
20179;SDS011;10249;48.900;9.090;2023-08-20T07:17:48;5.63;;;5.43;;
20179;SDS011;10249;48.900;9.090;2023-08-20T07:20:15;5.60;;;5.40;;
20179;SDS011;10249;48.900;9.090;2023-08-20T07:22:42;5.70;;;5.50;;
20179;SDS011;10249;48.900;9.090;2023-08-20T07:25:10;6.20;;;5.90;;
20179;SDS011;10249;48.900;9.090;2023-08-20T07:27:37;5.73;;;5.53;;
20179;SDS011;10249;48.900;9.090;2023-08-20T07:30:06;6.47;;;6.27;;
20179;SDS011;10249;48.900;9.090;2023-08-20T07:32:34;5.63;;;5.43;;
20179;SDS011;10249;48.900;9.090;2023-08-20T07:35:01;5.60;;;5.40;;
20179;SDS011;10249;48.900;9.090;2023-08-20T07:37:28;5.57;;;5.37;;
20179;SDS011;10249;48.900;9.090;2023-08-20T07:39:55;5.53;;;5.33;;
20179;SDS011;10249;48.900;9.090;2023-08-20T07:42:23;5.70;;;5.50;;
20179;SDS011;10249;48.900;9.090;2023-08-20T07:44:52;5.80;;;5.60;;
20179;SDS011;10249;48.900;9.090;2023-08-20T07:47:20;5.97;;;5.77;;
20179;SDS011;10249;48.900;9.090;2023-08-20T07:49:48;7.03;;;6.83;;
20179;SDS011;10249;48.900;9.090;2023-08-20T07:52:15;6.10;;;5.90;;
20179;SDS011;10249;48.900;9.090;2023-08-20T07:54:42;6.80;;;6.60;;
20179;SDS011;10249;48.900;9.090;2023-08-20T07:57:10;6.68;;;6.47;;
20179;SDS011;10249;48.900;9.090;2023-08-20T07:59:38;6.82;;;6.63;;
20179;SDS011;10249;48.900;9.090;2023-08-20T08:02:05;6.65;;;6.45;;
20179;SDS011;10249;48.900;9.090;2023-08-20T08:04:34;7.00;;;6.80;;
20179;SDS011;10249;48.900;9.090;2023-08-20T08:07:01;7.30;;;7.10;;
20179;SDS011;10249;48.900;9.090;2023-08-20T08:09:28;7.00;;;6.80;;
20179;SDS011;10249;48.900;9.090;2023-08-20T08:11:56;7.25;;;7.05;;
20179;SDS011;10249;48.900;9.090;2023-08-20T08:14:23;6.95;;;6.75;;
20179;SDS011;10249;48.900;9.090;2023-08-20T08:16:50;6.80;;;6.60;;
20179;SDS011;10249;48.900;9.090;2023-08-20T08:19:18;7.15;;;6.95;;
20179;SDS011;10249;48.900;9.090;2023-08-20T08:21:47;7.20;;;7.00;;
20179;SDS011;10249;48.900;9.090;2023-08-20T08:24:14;7.35;;;7.15;;
20179;SDS011;10249;48.900;9.090;2023-08-20T08:26:41;7.28;;;7.07;;
20179;SDS011;10249;48.900;9.090;2023-08-20T08:29:08;7.20;;;7.00;;
20179;SDS011;10249;48.900;9.090;2023-08-20T08:31:36;7.78;;;7.57;;
20179;SDS011;10249;48.900;9.090;2023-08-20T08:34:03;7.90;;;7.70;;
20179;SDS011;10249;48.900;9.090;2023-08-20T08:36:31;8.15;;;7.95;;
20179;SDS011;10249;48.900;9.090;2023-08-20T08:38:59;8.60;;;8.30;;
20179;SDS011;10249;48.900;9.090;2023-08-20T08:41:27;9.05;;;8.75;;
20179;SDS011;10249;48.900;9.090;2023-08-20T08:43:55;9.02;;;8.73;;
20179;SDS011;10249;48.900;9.090;2023-08-20T08:46:22;9.20;;;8.90;;
20179;SDS011;10249;48.900;9.090;2023-08-20T08:48:50;9.27;;;8.98;;
20179;SDS011;10249;48.900;9.090;2023-08-20T08:51:18;9.88;;;9.57;;
20179;SDS011;10249;48.900;9.090;2023-08-20T08:53:45;10.20;;;9.90;;
20179;SDS011;10249;48.900;9.090;2023-08-20T08:56:14;10.40;;;10.00;;
20179;SDS011;10249;48.900;9.090;2023-08-20T08:58:41;10.00;;;9.70;;
20179;SDS011;10249;48.900;9.090;2023-08-20T09:01:09;9.82;;;9.52;;
20179;SDS011;10249;48.900;9.090;2023-08-20T09:03:36;10.00;;;9.70;;
20179;SDS011;10249;48.900;9.090;2023-08-20T09:06:07;10.00;;;9.70;;
20179;SDS011;10249;48.900;9.090;2023-08-20T09:08:41;9.40;;;9.10;;
20179;SDS011;10249;48.900;9.090;2023-08-20T09:11:08;9.48;;;9.18;;
20179;SDS011;10249;48.900;9.090;2023-08-20T09:13:37;9.20;;;8.90;;
20179;SDS011;10249;48.900;9.090;2023-08-20T09:16:05;9.30;;;9.00;;
20179;SDS011;10249;48.900;9.090;2023-08-20T09:18:32;9.35;;;9.05;;
20179;SDS011;10249;48.900;9.090;2023-08-20T09:21:00;9.50;;;9.20;;
20179;SDS011;10249;48.900;9.090;2023-08-20T09:23:28;9.13;;;8.82;;
20179;SDS011;10249;48.900;9.090;2023-08-20T09:25:56;9.60;;;9.30;;
20179;SDS011;10249;48.900;9.090;2023-08-20T09:28:24;9.60;;;9.30;;
20179;SDS011;10249;48.900;9.090;2023-08-20T09:30:56;10.20;;;9.90;;
20179;SDS011;10249;48.900;9.090;2023-08-20T09:33:23;10.43;;;10.02;;
20179;SDS011;10249;48.900;9.090;2023-08-20T09:35:50;10.70;;;10.30;;
20179;SDS011;10249;48.900;9.090;2023-08-20T09:38:19;10.60;;;10.20;;
20179;SDS011;10249;48.900;9.090;2023-08-20T09:40:46;10.70;;;10.30;;
20179;SDS011;10249;48.900;9.090;2023-08-20T09:43:14;10.68;;;10.27;;
20179;SDS011;10249;48.900;9.090;2023-08-20T09:45:42;10.95;;;10.55;;
20179;SDS011;10249;48.900;9.090;2023-08-20T09:48:12;11.10;;;10.70;;
20179;SDS011;10249;48.900;9.090;2023-08-20T09:50:40;11.30;;;10.90;;
20179;SDS011;10249;48.900;9.090;2023-08-20T09:53:10;11.38;;;10.98;;
20179;SDS011;10249;48.900;9.090;2023-08-20T09:55:41;11.20;;;10.80;;
20179;SDS011;10249;48.900;9.090;2023-08-20T09:58:11;11.50;;;11.10;;
20179;SDS011;10249;48.900;9.090;2023-08-20T10:00:38;11.85;;;11.45;;
20179;SDS011;10249;48.900;9.090;2023-08-20T10:03:05;12.40;;;11.90;;
20179;SDS011;10249;48.900;9.090;2023-08-20T10:05:34;11.80;;;11.35;;
20179;SDS011;10249;48.900;9.090;2023-08-20T10:08:01;11.55;;;11.15;;
20179;SDS011;10249;48.900;9.090;2023-08-20T10:10:28;11.40;;;11.00;;
20179;SDS011;10249;48.900;9.090;2023-08-20T10:12:56;11.40;;;11.00;;
20179;SDS011;10249;48.900;9.090;2023-08-20T10:15:23;11.35;;;10.95;;
20179;SDS011;10249;48.900;9.090;2023-08-20T10:17:51;11.60;;;11.20;;
20179;SDS011;10249;48.900;9.090;2023-08-20T10:20:19;11.50;;;11.10;;
20179;SDS011;10249;48.900;9.090;2023-08-20T10:22:48;11.00;;;10.60;;
20179;SDS011;10249;48.900;9.090;2023-08-20T10:25:22;11.20;;;10.80;;
20179;SDS011;10249;48.900;9.090;2023-08-20T10:27:49;11.20;;;10.80;;
20179;SDS011;10249;48.900;9.090;2023-08-20T10:30:16;11.27;;;10.88;;
20179;SDS011;10249;48.900;9.090;2023-08-20T10:32:46;11.40;;;11.00;;
20179;SDS011;10249;48.900;9.090;2023-08-20T10:35:14;11.85;;;11.38;;
20179;SDS011;10249;48.900;9.090;2023-08-20T10:43:08;12.40;;;11.90;;
20179;SDS011;10249;48.900;9.090;2023-08-20T10:45:42;12.57;;;12.07;;
20179;SDS011;10249;48.900;9.090;2023-08-20T10:48:11;12.50;;;12.00;;
20179;SDS011;10249;48.900;9.090;2023-08-20T10:50:38;12.68;;;12.18;;
20179;SDS011;10249;48.900;9.090;2023-08-20T10:53:07;12.90;;;12.40;;
20179;SDS011;10249;48.900;9.090;2023-08-20T10:55:34;12.63;;;12.13;;
20179;SDS011;10249;48.900;9.090;2023-08-20T10:58:03;12.98;;;12.48;;
20179;SDS011;10249;48.900;9.090;2023-08-20T11:00:33;13.25;;;12.73;;
20179;SDS011;10249;48.900;9.090;2023-08-20T11:03:00;13.15;;;12.60;;
20179;SDS011;10249;48.900;9.090;2023-08-20T11:05:28;13.32;;;12.73;;
20179;SDS011;10249;48.900;9.090;2023-08-20T11:07:55;12.25;;;11.75;;
20179;SDS011;10249;48.900;9.090;2023-08-20T11:10:22;12.57;;;12.07;;
20179;SDS011;10249;48.900;9.090;2023-08-20T11:12:50;12.43;;;11.93;;
20179;SDS011;10249;48.900;9.090;2023-08-20T11:15:17;12.48;;;11.98;;
20179;SDS011;10249;48.900;9.090;2023-08-20T11:17:47;12.80;;;12.30;;
20179;SDS011;10249;48.900;9.090;2023-08-20T11:20:14;12.65;;;12.15;;
20179;SDS011;10249;48.900;9.090;2023-08-20T11:22:41;13.38;;;12.85;;
20179;SDS011;10249;48.900;9.090;2023-08-20T11:25:10;12.70;;;12.20;;
20179;SDS011;10249;48.900;9.090;2023-08-20T11:27:40;12.82;;;12.32;;
20179;SDS011;10249;48.900;9.090;2023-08-20T11:30:08;13.80;;;13.20;;
20179;SDS011;10249;48.900;9.090;2023-08-20T11:32:37;14.05;;;13.45;;
20179;SDS011;10249;48.900;9.090;2023-08-20T11:35:06;14.75;;;14.05;;
20179;SDS011;10249;48.900;9.090;2023-08-20T11:37:34;14.55;;;13.85;;
20179;SDS011;10249;48.900;9.090;2023-08-20T11:40:01;14.90;;;14.20;;
20179;SDS011;10249;48.900;9.090;2023-08-20T11:42:28;15.00;;;14.30;;
20179;SDS011;10249;48.900;9.090;2023-08-20T11:44:56;15.38;;;14.68;;
20179;SDS011;10249;48.900;9.090;2023-08-20T11:47:23;15.52;;;14.73;;
20179;SDS011;10249;48.900;9.090;2023-08-20T11:50:01;14.25;;;13.55;;
20179;SDS011;10249;48.900;9.090;2023-08-20T11:52:31;14.65;;;13.95;;
20179;SDS011;10249;48.900;9.090;2023-08-20T11:54:59;14.68;;;13.98;;
20179;SDS011;10249;48.900;9.090;2023-08-20T11:57:28;15.35;;;14.65;;
20179;SDS011;10249;48.900;9.090;2023-08-20T11:59:55;15.38;;;14.68;;
20179;SDS011;10249;48.900;9.090;2023-08-20T12:02:26;15.65;;;14.85;;
20179;SDS011;10249;48.900;9.090;2023-08-20T12:04:55;15.52;;;14.82;;
20179;SDS011;10249;48.900;9.090;2023-08-20T12:07:24;15.60;;;14.80;;
20179;SDS011;10249;48.900;9.090;2023-08-20T12:09:54;15.88;;;15.07;;
20179;SDS011;10249;48.900;9.090;2023-08-20T12:12:21;15.20;;;14.50;;
20179;SDS011;10249;48.900;9.090;2023-08-20T12:14:48;15.50;;;14.80;;
20179;SDS011;10249;48.900;9.090;2023-08-20T12:17:17;15.48;;;14.77;;
20179;SDS011;10249;48.900;9.090;2023-08-20T12:19:44;15.68;;;14.98;;
20179;SDS011;10249;48.900;9.090;2023-08-20T12:22:12;15.70;;;15.00;;
20179;SDS011;10249;48.900;9.090;2023-08-20T12:24:39;15.40;;;14.70;;
20179;SDS011;10249;48.900;9.090;2023-08-20T12:27:07;15.50;;;14.80;;
20179;SDS011;10249;48.900;9.090;2023-08-20T12:29:35;15.60;;;14.90;;
20179;SDS011;10249;48.900;9.090;2023-08-20T12:32:02;15.55;;;14.85;;
20179;SDS011;10249;48.900;9.090;2023-08-20T12:34:32;15.93;;;15.23;;
20179;SDS011;10249;48.900;9.090;2023-08-20T12:36:59;15.57;;;14.88;;
20179;SDS011;10249;48.900;9.090;2023-08-20T12:39:28;15.60;;;14.90;;
20179;SDS011;10249;48.900;9.090;2023-08-20T12:41:55;15.80;;;15.10;;
20179;SDS011;10249;48.900;9.090;2023-08-20T12:44:24;15.57;;;14.88;;
20179;SDS011;10249;48.900;9.090;2023-08-20T12:46:51;16.48;;;15.68;;
20179;SDS011;10249;48.900;9.090;2023-08-20T12:49:18;15.70;;;15.00;;
20179;SDS011;10249;48.900;9.090;2023-08-20T12:51:45;15.70;;;15.00;;
20179;SDS011;10249;48.900;9.090;2023-08-20T12:54:13;15.70;;;15.00;;
20179;SDS011;10249;48.900;9.090;2023-08-20T12:56:41;15.57;;;14.88;;
20179;SDS011;10249;48.900;9.090;2023-08-20T12:59:09;15.23;;;14.52;;
20179;SDS011;10249;48.900;9.090;2023-08-20T13:01:37;15.35;;;14.65;;
20179;SDS011;10249;48.900;9.090;2023-08-20T13:04:05;16.48;;;15.68;;
20179;SDS011;10249;48.900;9.090;2023-08-20T13:06:32;15.60;;;14.90;;
20179;SDS011;10249;48.900;9.090;2023-08-20T13:09:00;15.57;;;14.88;;
20179;SDS011;10249;48.900;9.090;2023-08-20T13:11:28;15.70;;;15.00;;
20179;SDS011;10249;48.900;9.090;2023-08-20T13:13:58;15.77;;;15.07;;
20179;SDS011;10249;48.900;9.090;2023-08-20T13:16:26;15.75;;;15.05;;
20179;SDS011;10249;48.900;9.090;2023-08-20T13:18:57;15.65;;;14.95;;
20179;SDS011;10249;48.900;9.090;2023-08-20T13:21:24;15.82;;;15.13;;
20179;SDS011;10249;48.900;9.090;2023-08-20T13:23:52;15.88;;;15.18;;
20179;SDS011;10249;48.900;9.090;2023-08-20T13:26:19;15.80;;;15.10;;
20179;SDS011;10249;48.900;9.090;2023-08-20T13:28:47;15.82;;;15.13;;
20179;SDS011;10249;48.900;9.090;2023-08-20T13:31:14;15.90;;;15.20;;
20179;SDS011;10249;48.900;9.090;2023-08-20T13:33:41;16.20;;;15.40;;
20179;SDS011;10249;48.900;9.090;2023-08-20T13:36:10;16.50;;;15.70;;
20179;SDS011;10249;48.900;9.090;2023-08-20T13:38:37;15.70;;;15.00;;
20179;SDS011;10249;48.900;9.090;2023-08-20T13:41:04;15.60;;;14.90;;
20179;SDS011;10249;48.900;9.090;2023-08-20T13:43:32;15.88;;;15.10;;
20179;SDS011;10249;48.900;9.090;2023-08-20T13:45:59;16.40;;;15.60;;
20179;SDS011;10249;48.900;9.090;2023-08-20T13:48:26;15.57;;;14.88;;
20179;SDS011;10249;48.900;9.090;2023-08-20T13:50:53;15.73;;;15.02;;
20179;SDS011;10249;48.900;9.090;2023-08-20T13:53:22;15.73;;;15.02;;
20179;SDS011;10249;48.900;9.090;2023-08-20T13:55:50;15.57;;;14.88;;
20179;SDS011;10249;48.900;9.090;2023-08-20T13:58:18;15.57;;;14.88;;
20179;SDS011;10249;48.900;9.090;2023-08-20T14:00:46;15.68;;;14.98;;
20179;SDS011;10249;48.900;9.090;2023-08-20T14:03:13;15.52;;;14.82;;
20179;SDS011;10249;48.900;9.090;2023-08-20T14:05:41;15.57;;;14.88;;
20179;SDS011;10249;48.900;9.090;2023-08-20T14:08:10;15.60;;;14.90;;
20179;SDS011;10249;48.900;9.090;2023-08-20T14:10:38;15.48;;;14.77;;
20179;SDS011;10249;48.900;9.090;2023-08-20T14:13:05;16.42;;;15.63;;
20179;SDS011;10249;48.900;9.090;2023-08-20T14:15:33;16.10;;;15.30;;
20179;SDS011;10249;48.900;9.090;2023-08-20T14:18:01;15.55;;;14.85;;
20179;SDS011;10249;48.900;9.090;2023-08-20T14:20:28;15.60;;;14.90;;
20179;SDS011;10249;48.900;9.090;2023-08-20T14:22:56;15.85;;;15.15;;
20179;SDS011;10249;48.900;9.090;2023-08-20T14:25:23;15.73;;;15.02;;
20179;SDS011;10249;48.900;9.090;2023-08-20T14:27:51;15.60;;;14.90;;
20179;SDS011;10249;48.900;9.090;2023-08-20T14:30:19;15.77;;;15.07;;
20179;SDS011;10249;48.900;9.090;2023-08-20T14:32:46;16.48;;;15.68;;
20179;SDS011;10249;48.900;9.090;2023-08-20T14:35:13;15.60;;;14.90;;
20179;SDS011;10249;48.900;9.090;2023-08-20T14:37:40;16.45;;;15.45;;
20179;SDS011;10249;48.900;9.090;2023-08-20T14:40:08;15.70;;;15.00;;
20179;SDS011;10249;48.900;9.090;2023-08-20T14:42:36;15.40;;;14.70;;
20179;SDS011;10249;48.900;9.090;2023-08-20T14:45:06;15.80;;;15.10;;
20179;SDS011;10249;48.900;9.090;2023-08-20T14:47:34;15.50;;;14.80;;